Time;durP1;ratioP1;P1;durP2;ratioP2;P2;SDS_P1;SDS_P2;PMS_P1;PMS_P2;Temp;Humidity;BMP_temperature;BMP_pressure;BME280_temperature;BME280_humidity;BME280_pressure;Samples;Min_cycle;Max_cycle;Signal;HPM_P1;HPM_P2
2022/12/15 00:40:24;;;;;;;94.55;45.67;;;;;;;-4.64;82.65;98922.61;2120792;83;21047;-81
2022/12/15 00:43:29;;;;;;;105.70;52.33;;;;;;;-4.65;82.88;98926.11;2123337;82;21014;-81
2022/12/15 01:23:17;;;;;;;126.80;57.98;;;;;;;-5.20;83.90;98943.41;2062743;85;21055;-81
2022/12/15 01:26:19;;;;;;;115.95;54.00;;;;;;;-5.21;84.10;98952.07;2062155;85;21049;-81
2022/12/15 01:29:21;;;;;;;115.82;55.52;;;;;;;-5.20;84.24;98955.88;2059879;85;21093;-81
2022/12/15 01:32:25;;;;;;;123.65;57.03;;;;;;;-5.18;84.51;98954.47;2057457;85;21097;-81
2022/12/15 01:35:26;;;;;;;110.90;53.42;;;;;;;-5.14;84.56;98961.12;2066250;85;21031;-81
2022/12/15 01:38:28;;;;;;;116.47;53.98;;;;;;;-5.10;84.64;98953.52;2070465;85;21055;-81
2022/12/15 01:41:29;;;;;;;112.40;53.23;;;;;;;-5.07;84.67;98958.97;2065277;85;21442;-81
2022/12/15 01:44:30;;;;;;;110.60;53.78;;;;;;;-5.06;84.73;98961.48;2065920;85;21512;-81
2022/12/15 01:47:31;;;;;;;129.23;56.95;;;;;;;-5.05;84.73;98961.83;2061605;85;21054;-80
2022/12/15 01:50:38;;;;;;;123.60;58.05;;;;;;;-5.04;84.85;98969.98;2062004;85;21641;-81
2022/12/15 01:53:56;;;;;;;124.42;58.80;;;;;;;-5.04;84.83;98968.69;2056809;85;21137;-81
2022/12/15 01:57:05;;;;;;;135.97;60.50;;;;;;;-5.06;84.88;98972.30;2046725;85;21622;-81
2022/12/15 02:00:13;;;;;;;130.70;64.32;;;;;;;-5.07;84.87;98986.95;2064846;85;21049;-80
2022/12/15 02:03:13;;;;;;;133.03;61.18;;;;;;;-5.08;84.98;98989.66;2062207;85;21601;-81
2022/12/15 02:06:18;;;;;;;139.10;65.10;;;;;;;-5.08;85.00;98998.24;2065520;85;21460;-80
2022/12/15 02:09:20;;;;;;;137.68;62.67;;;;;;;-5.07;85.06;98996.01;2061827;85;21692;-81
2022/12/15 02:12:52;;;;;;;136.45;60.43;;;;;;;-5.09;85.12;98994.47;2059024;85;21050;-81
2022/12/15 02:15:59;;;;;;;123.95;57.90;;;;;;;-5.09;85.08;98999.65;2069480;85;21096;-81
2022/12/15 02:19:12;;;;;;;121.65;57.88;;;;;;;-5.08;85.16;99006.00;2081823;84;21553;-80
2022/12/15 02:22:33;;;;;;;128.27;58.85;;;;;;;-5.08;85.19;99003.41;2108761;84;21047;-80
2022/12/15 02:26:17;;;;;;;131.25;58.58;;;;;;;-5.06;85.19;99018.86;2108600;84;21047;-81
2022/12/15 02:29:42;;;;;;;129.30;59.40;;;;;;;-5.08;85.17;99018.94;2094272;84;21092;-80
2022/12/15 02:32:53;;;;;;;130.67;59.80;;;;;;;-5.09;85.28;99028.10;2112442;82;21090;-80
2022/12/15 02:36:00;;;;;;;127.17;59.33;;;;;;;-5.10;85.29;99027.25;2105925;83;21076;-81
2022/12/15 02:39:01;;;;;;;133.85;61.60;;;;;;;-5.11;85.28;99036.41;2108998;84;21162;-81
2022/12/15 02:42:02;;;;;;;143.57;63.28;;;;;;;-5.12;85.32;99036.88;2110704;84;21103;-81
2022/12/15 02:45:11;;;;;;;132.35;62.25;;;;;;;-5.11;85.34;99047.58;2111301;83;21675;-80
2022/12/15 02:48:33;;;;;;;137.10;62.15;;;;;;;-5.10;85.37;99047.94;2104926;82;21064;-80
2022/12/15 02:52:03;;;;;;;144.57;63.78;;;;;;;-5.08;85.38;99052.56;2111555;84;21002;-80
2022/12/15 02:55:19;;;;;;;133.47;59.95;;;;;;;-5.08;85.58;99066.80;2111562;83;21055;-81
2022/12/15 02:58:47;;;;;;;134.55;60.25;;;;;;;-5.07;85.50;99062.45;2115340;83;21076;-81
2022/12/15 03:01:55;;;;;;;130.67;57.05;;;;;;;-5.06;85.48;99070.13;2094964;84;21116;-81
2022/12/15 03:04:58;;;;;;;128.15;58.58;;;;;;;-5.09;85.42;99075.49;2110169;83;21027;-81
2022/12/15 03:08:00;;;;;;;131.85;58.05;;;;;;;-5.11;85.48;99076.03;2111148;83;21528;-81
2022/12/15 03:11:03;;;;;;;127.60;59.18;;;;;;;-5.09;85.52;99085.84;2114464;83;21005;-81
2022/12/15 03:14:05;;;;;;;134.22;59.42;;;;;;;-5.05;85.69;99093.77;2109532;83;21072;-81
2022/12/15 03:17:08;;;;;;;131.10;60.00;;;;;;;-5.04;85.54;99098.47;2092743;83;21133;-81
2022/12/15 03:20:10;;;;;;;143.75;63.08;;;;;;;-5.04;85.49;99095.89;2078825;85;21545;-81
2022/12/15 03:23:12;;;;;;;133.30;60.95;;;;;;;-5.05;85.52;99098.94;2083751;85;21113;-81
2022/12/15 03:26:12;;;;;;;142.07;64.13;;;;;;;-5.04;85.57;99102.36;2083816;85;20964;-80
2022/12/15 03:29:14;;;;;;;149.32;66.35;;;;;;;-5.04;85.57;99111.41;2084852;85;21474;-80
2022/12/15 03:32:14;;;;;;;139.95;65.57;;;;;;;-5.06;85.63;99110.69;2085810;85;21108;-80
2022/12/15 03:35:16;;;;;;;140.70;68.45;;;;;;;-5.08;85.67;99104.30;2082118;85;21646;-81
2022/12/15 03:38:17;;;;;;;145.40;66.67;;;;;;;-5.07;85.69;99107.25;2078426;85;21101;-81
2022/12/15 03:41:18;;;;;;;143.80;65.20;;;;;;;-5.03;85.69;99119.56;2062852;85;21113;-81
2022/12/15 03:44:21;;;;;;;147.02;65.67;;;;;;;-5.00;85.65;99118.08;2058751;85;22061;-80
2022/12/15 03:47:22;;;;;;;145.68;65.60;;;;;;;-4.99;85.61;99121.02;2083632;85;21586;-81
2022/12/15 03:50:26;;;;;;;148.20;64.17;;;;;;;-4.99;85.56;99122.31;2085877;85;21067;-81
2022/12/15 03:53:28;;;;;;;141.07;64.35;;;;;;;-4.98;85.57;99123.53;2069663;84;20977;-81
2022/12/15 03:56:29;;;;;;;143.28;64.40;;;;;;;-4.96;85.54;99131.19;2074456;84;21015;-81
2022/12/15 03:59:30;;;;;;;135.03;66.12;;;;;;;-4.94;85.60;99128.52;2101467;83;21053;-81
2022/12/15 04:02:31;;;;;;;139.05;65.47;;;;;;;-4.91;85.62;99135.62;2086437;84;20954;-80
2022/12/15 04:05:34;;;;;;;137.22;64.53;;;;;;;-4.89;85.58;99138.96;2087248;84;21038;-81
2022/12/15 04:08:35;;;;;;;153.05;67.12;;;;;;;-4.87;85.52;99146.61;2086846;85;21069;-81
2022/12/15 04:11:36;;;;;;;148.80;65.92;;;;;;;-4.89;85.49;99135.55;2086323;84;21059;-81
2022/12/15 04:14:42;;;;;;;139.37;65.70;;;;;;;-4.85;85.52;99135.25;2084962;85;21101;-80
2022/12/15 04:17:41;;;;;;;146.60;67.87;;;;;;;-4.86;85.49;99134.06;2121098;83;21505;-81
2022/12/15 04:20:43;;;;;;;143.43;65.87;;;;;;;-4.81;85.57;99143.68;2122389;83;21493;-81
2022/12/15 05:33:49;;;;;;;115.30;53.58;;;;;;;-4.62;85.06;99236.56;2103746;83;21094;-82
2022/12/15 05:36:50;;;;;;;110.00;51.10;;;;;;;-4.59;85.14;99250.17;2125018;83;21062;-82
2022/12/15 05:39:51;;;;;;;110.00;51.18;;;;;;;-4.58;85.07;99244.06;2125247;83;21071;-81
2022/12/15 05:42:52;;;;;;;110.75;52.73;;;;;;;-4.56;85.07;99248.69;2122756;83;21343;-77
2022/12/15 05:45:53;;;;;;;112.68;52.53;;;;;;;-4.53;85.15;99247.68;2115196;83;21149;-79
2022/12/15 05:48:54;;;;;;;103.17;48.38;;;;;;;-4.48;85.14;99258.56;2125380;83;20990;-80
2022/12/15 05:51:56;;;;;;;94.72;47.70;;;;;;;-4.45;85.04;99262.27;2128239;83;21468;-81
2022/12/15 05:54:57;;;;;;;106.47;49.65;;;;;;;-4.47;84.93;99270.61;2123259;83;21613;-79
2022/12/15 05:57:58;;;;;;;104.17;50.33;;;;;;;-4.46;84.95;99270.97;2125298;83;21546;-81
2022/12/15 06:01:12;;;;;;;103.35;52.25;;;;;;;-4.43;84.97;99272.55;2123610;83;20995;-80
2022/12/15 06:04:17;;;;;;;105.83;51.90;;;;;;;-4.41;84.95;99281.06;2120721;83;21015;-79
2022/12/15 06:07:18;;;;;;;100.72;48.40;;;;;;;-4.37;84.99;99285.12;2121431;83;21022;-81
2022/12/15 06:10:19;;;;;;;102.92;48.68;;;;;;;-4.37;84.95;99297.59;2121273;83;21014;-81
2022/12/15 06:13:24;;;;;;;101.20;49.77;;;;;;;-4.35;84.90;99297.05;2122358;83;20978;-80
2022/12/15 06:16:29;;;;;;;105.27;50.80;;;;;;;-4.31;84.93;99295.10;2110279;83;21133;-80
2022/12/15 06:19:32;;;;;;;100.22;47.80;;;;;;;-4.27;84.92;99306.96;2112676;83;21101;-80
2022/12/15 06:22:33;;;;;;;97.60;46.42;;;;;;;-4.26;84.74;99320.73;2125909;83;21085;-80
2022/12/15 06:25:34;;;;;;;105.52;50.10;;;;;;;-4.29;84.76;99326.94;2117526;83;21041;-80
2022/12/15 06:28:35;;;;;;;98.40;48.65;;;;;;;-4.26;84.82;99319.44;2121900;83;21061;-79
2022/12/15 06:31:37;;;;;;;100.58;48.78;;;;;;;-4.24;84.84;99336.56;2122635;83;21551;-79
2022/12/15 06:34:38;;;;;;;102.80;49.42;;;;;;;-4.22;84.90;99346.37;2121108;83;21472;-80
2022/12/15 06:37:44;;;;;;;102.55;47.78;;;;;;;-4.23;84.80;99354.23;2122684;83;21588;-81
2022/12/15 06:40:45;;;;;;;102.40;48.23;;;;;;;-4.26;84.72;99364.31;2117159;83;20999;-80
2022/12/15 06:43:54;;;;;;;100.85;48.65;;;;;;;-4.28;84.69;99368.73;2117476;83;20978;-80
2022/12/15 06:46:55;;;;;;;98.47;47.17;;;;;;;-4.26;84.81;99374.67;2124272;83;21141;-80
2022/12/15 06:49:56;;;;;;;93.03;42.78;;;;;;;-4.27;84.75;99374.31;2126868;83;21536;-81
2022/12/15 06:53:01;;;;;;;87.97;42.93;;;;;;;-4.26;84.73;99370.78;2121187;83;21018;-80
2022/12/15 06:56:08;;;;;;;82.62;40.70;;;;;;;-4.28;84.75;99372.62;2119119;83;20984;-80
2022/12/15 06:59:12;;;;;;;81.72;41.80;;;;;;;-4.24;84.78;99381.89;2117135;83;21098;-80
2022/12/15 07:02:19;;;;;;;81.87;40.58;;;;;;;-4.21;84.80;99383.01;2122338;83;21074;-80
2022/12/15 07:05:24;;;;;;;81.45;41.05;;;;;;;-4.17;84.84;99387.53;2116381;83;21064;-80
2022/12/15 07:08:25;;;;;;;133.22;65.08;;;;;;;-4.14;84.77;99380.88;2112849;83;21048;-80
2022/12/15 07:11:27;;;;;;;143.52;74.92;;;;;;;-4.12;84.72;99391.52;2116957;83;21072;-76
2022/12/15 07:14:31;;;;;;;116.20;51.23;;;;;;;-4.09;84.72;99386.16;2122534;83;21493;-76
2022/12/15 07:17:32;;;;;;;86.15;42.48;;;;;;;-4.06;84.76;99395.03;2121851;83;21082;-75
2022/12/15 07:20:33;;;;;;;85.35;40.95;;;;;;;-4.03;84.71;99395.78;2123157;83;21486;-77
2022/12/15 07:23:38;;;;;;;88.20;41.77;;;;;;;-4.00;84.72;99400.78;2119048;83;20947;-78
2022/12/15 07:26:44;;;;;;;82.53;40.88;;;;;;;-3.97;84.71;99409.66;2121829;83;21038;-78
2022/12/15 07:29:46;;;;;;;83.82;40.75;;;;;;;-3.93;84.71;99405.52;2125242;83;21025;-78
2022/12/15 07:32:47;;;;;;;73.72;38.70;;;;;;;-3.87;84.72;99415.51;2087771;83;21027;-78
2022/12/15 07:36:02;;;;;;;102.87;47.23;;;;;;;-3.85;84.60;99415.42;2127132;83;21566;-78
2022/12/15 07:39:10;;;;;;;100.27;45.70;;;;;;;-3.81;84.64;99425.97;2121909;83;22071;-78
2022/12/15 07:42:21;;;;;;;96.35;43.20;;;;;;;-3.72;84.68;99434.95;2127442;83;21513;-72
2022/12/15 07:45:23;;;;;;;90.00;41.58;;;;;;;-3.66;84.68;99445.80;2120907;83;21085;-79
2022/12/15 07:48:26;;;;;;;100.87;42.88;;;;;;;-3.59;84.58;99454.50;2121183;83;21052;-79
2022/12/15 07:51:29;;;;;;;113.62;49.27;;;;;;;-3.55;84.54;99457.27;2120792;83;22515;-79
2022/12/15 07:54:30;;;;;;;84.35;42.10;;;;;;;-3.49;84.46;99455.14;2121276;83;21631;-79
2022/12/15 07:57:31;;;;;;;75.85;37.93;;;;;;;-3.44;84.33;99457.44;2119809;83;20960;-79
2022/12/15 08:00:33;;;;;;;74.75;37.93;;;;;;;-3.40;84.30;99455.88;2122688;83;21034;-79
2022/12/15 08:03:35;;;;;;;73.33;38.80;;;;;;;-3.32;84.27;99468.81;2122897;83;21072;-79
2022/12/15 08:06:39;;;;;;;90.62;40.33;;;;;;;-3.31;84.16;99476.52;2122284;83;21151;-79
2022/12/15 08:09:47;;;;;;;78.35;38.20;;;;;;;-3.25;84.24;99480.03;2118102;83;21530;-78
2022/12/15 08:12:47;;;;;;;78.15;38.20;;;;;;;-3.20;84.15;99490.96;2119897;83;20991;-79
2022/12/15 08:15:59;;;;;;;74.50;34.35;;;;;;;-3.20;83.95;99495.33;2124838;83;21049;-79
2022/12/15 08:19:00;;;;;;;71.30;35.10;;;;;;;-3.18;83.86;99495.60;2115905;83;21050;-79
2022/12/15 08:22:03;;;;;;;62.73;32.05;;;;;;;-3.17;83.65;99495.13;2124025;83;21055;-79
2022/12/15 08:25:05;;;;;;;67.03;33.18;;;;;;;-3.13;83.61;99494.47;2126526;83;21046;-79
2022/12/15 08:28:06;;;;;;;71.35;33.30;;;;;;;-3.08;83.63;99493.73;2123385;83;21017;-79
2022/12/15 08:31:23;;;;;;;53.10;27.00;;;;;;;-3.04;83.42;99496.48;2122461;83;21009;-79
2022/12/15 08:34:21;;;;;;;55.23;28.42;;;;;;;-3.08;82.92;99508.00;2122213;83;21024;-79
2022/12/15 08:37:29;;;;;;;59.35;28.95;;;;;;;-3.08;83.07;99498.92;2117563;83;21018;-79
2022/12/15 08:40:31;;;;;;;56.80;30.15;;;;;;;-3.05;83.17;99500.84;2112384;83;21771;-79
2022/12/15 08:43:32;;;;;;;55.85;28.80;;;;;;;-3.00;82.94;99512.26;2119555;83;21013;-79
2022/12/15 08:46:40;;;;;;;56.05;28.85;;;;;;;-2.98;82.95;99516.90;2123184;83;21003;-79
2022/12/15 08:49:47;;;;;;;57.78;27.93;;;;;;;-2.93;82.90;99514.82;2116677;83;21030;-79
2022/12/15 08:52:51;;;;;;;44.30;23.50;;;;;;;-2.92;82.39;99508.72;2117286;83;21042;-79
2022/12/15 08:55:52;;;;;;;42.70;22.65;;;;;;;-2.91;82.16;99529.02;2122662;83;21042;-79
2022/12/15 08:58:58;;;;;;;48.08;24.15;;;;;;;-2.90;82.04;99521.16;2128500;83;21077;-79
2022/12/15 09:02:01;;;;;;;43.83;23.22;;;;;;;-2.83;82.07;99522.41;2118974;83;21683;-79
2022/12/15 09:05:05;;;;;;;40.23;21.60;;;;;;;-2.77;81.63;99512.11;2121784;83;21549;-79
2022/12/15 09:08:11;;;;;;;45.03;24.35;;;;;;;-2.75;81.24;99509.78;2125173;83;21050;-79
2022/12/15 09:11:15;;;;;;;41.30;23.50;;;;;;;-2.66;81.36;99516.16;2119359;83;21074;-78
2022/12/15 09:14:17;;;;;;;43.73;23.25;;;;;;;-2.51;81.44;99519.53;2123460;83;21006;-79
2022/12/15 09:17:21;;;;;;;38.98;21.87;;;;;;;-2.42;81.27;99526.76;2124262;83;21042;-79
2022/12/15 09:20:32;;;;;;;48.63;24.65;;;;;;;-2.37;80.67;99529.87;2126218;83;21697;-79
2022/12/15 09:23:35;;;;;;;48.85;25.90;;;;;;;-2.38;80.58;99539.91;2126271;83;21020;-78
2022/12/15 09:26:36;;;;;;;46.53;24.95;;;;;;;-2.33;80.34;99539.62;2121646;83;21020;-79
2022/12/15 09:29:37;;;;;;;47.83;25.77;;;;;;;-2.32;80.21;99540.80;2092233;84;21580;-79
2022/12/15 09:32:38;;;;;;;48.73;24.18;;;;;;;-2.32;79.95;99541.28;2090921;84;21593;-78
2022/12/15 09:35:57;;;;;;;44.03;24.43;;;;;;;-2.28;79.78;99547.48;2130000;83;21097;-78
2022/12/15 09:39:02;;;;;;;41.83;23.25;;;;;;;-2.22;80.09;99549.30;2092464;84;21068;-78
2022/12/15 09:42:04;;;;;;;41.20;22.40;;;;;;;-2.17;79.88;99557.16;2095843;83;20994;-79
2022/12/15 09:45:23;;;;;;;40.38;21.77;;;;;;;-2.09;79.87;99553.60;2121882;83;21041;-79
2022/12/15 09:48:42;;;;;;;40.98;22.48;;;;;;;-2.00;79.54;99554.77;2093342;83;21076;-79
2022/12/15 09:51:57;;;;;;;39.53;21.00;;;;;;;-1.92;79.36;99558.17;2120245;83;21474;-78
2022/12/15 09:55:04;;;;;;;43.33;22.52;;;;;;;-1.89;78.91;99566.59;2124213;83;21089;-79
2022/12/15 09:58:28;;;;;;;41.88;21.95;;;;;;;-1.93;78.46;99566.92;2091699;84;21034;-79
2022/12/15 10:01:45;;;;;;;39.18;22.20;;;;;;;-2.04;78.45;99563.71;2102487;84;21003;-79
2022/12/15 10:05:02;;;;;;;37.83;20.90;;;;;;;-2.11;78.43;99563.73;2095574;84;21157;-79
2022/12/15 10:08:19;;;;;;;43.55;21.55;;;;;;;-2.17;78.26;99557.64;2096478;84;21527;-79
2022/12/15 10:11:49;;;;;;;34.78;19.62;;;;;;;-2.22;78.17;99561.00;2101878;84;21560;-76
2022/12/15 10:15:01;;;;;;;41.33;20.50;;;;;;;-2.30;77.62;99563.64;2092549;84;21076;-80
2022/12/15 10:18:17;;;;;;;38.42;20.23;;;;;;;-2.27;77.88;99549.14;2102182;83;21051;-79
2022/12/15 10:21:29;;;;;;;40.63;21.62;;;;;;;-2.17;78.14;99552.44;2056655;84;21104;-80
2022/12/15 10:24:32;;;;;;;51.48;23.52;;;;;;;-2.02;77.73;99557.95;2073996;83;21100;-78
2022/12/15 10:28:01;;;;;;;45.25;21.73;;;;;;;-1.81;78.20;99554.39;2098284;84;21548;-79
2022/12/15 10:31:02;;;;;;;45.25;21.37;;;;;;;-1.58;77.91;99556.75;2092678;84;21061;-79
2022/12/15 10:34:24;;;;;;;44.90;23.50;;;;;;;-1.14;78.37;99571.12;2061609;84;21064;-79
2022/12/15 10:37:25;;;;;;;42.85;22.10;;;;;;;-0.63;78.12;99579.31;2093943;83;21019;-76
2022/12/15 10:40:52;;;;;;;36.75;19.52;;;;;;;-0.22;77.34;99572.45;2091666;84;21608;-77
2022/12/15 10:43:57;;;;;;;37.88;20.92;;;;;;;0.10;76.77;99575.77;2087818;84;20999;-78
2022/12/15 10:47:02;;;;;;;39.83;21.02;;;;;;;0.31;76.35;99572.89;2096297;83;21587;-78
2022/12/15 10:50:24;;;;;;;47.23;23.07;;;;;;;0.23;75.48;99583.06;2094253;84;21074;-77
2022/12/15 10:53:45;;;;;;;53.42;23.95;;;;;;;0.33;75.76;99577.98;2087575;83;21092;-78
2022/12/15 10:56:55;;;;;;;50.60;23.75;;;;;;;0.60;75.54;99569.86;2098461;83;22333;-79
2022/12/15 11:00:15;;;;;;;42.90;21.40;;;;;;;0.60;74.94;99562.84;2094560;84;21014;-79
2022/12/15 11:03:25;;;;;;;61.70;28.62;;;;;;;0.51;74.04;99566.61;2091123;84;21131;-78
2022/12/15 11:06:35;;;;;;;64.70;29.32;;;;;;;0.40;74.10;99570.06;2092403;83;21054;-78
2022/12/15 11:09:39;;;;;;;60.17;28.35;;;;;;;0.30;73.97;99575.12;2094391;83;21081;-78
2022/12/15 11:12:52;;;;;;;52.03;25.35;;;;;;;0.22;74.06;99580.08;2098458;83;20958;-78
2022/12/15 11:15:55;;;;;;;45.28;21.37;;;;;;;0.14;73.65;99584.58;2089754;84;21056;-78
2022/12/15 11:19:13;;;;;;;38.20;20.90;;;;;;;0.03;73.64;99591.50;2097419;83;21015;-78
2022/12/15 11:22:43;;;;;;;42.10;21.17;;;;;;;-0.02;73.51;99593.16;2075269;85;21644;-78
2022/12/15 11:26:00;;;;;;;43.10;23.12;;;;;;;-0.05;73.33;99593.39;2109298;83;21618;-78
2022/12/15 11:29:44;;;;;;;44.05;23.12;;;;;;;0.25;73.76;99604.63;2084150;84;21078;-78
2022/12/15 11:32:53;;;;;;;41.83;23.73;;;;;;;0.51;73.37;99616.22;2096438;83;21077;-78
2022/12/15 11:36:14;;;;;;;39.88;21.35;;;;;;;0.72;73.01;99617.22;2093748;84;22249;-78
2022/12/15 11:39:28;;;;;;;37.15;20.05;;;;;;;0.81;72.51;99616.52;2092421;83;21046;-79
2022/12/15 11:43:00;;;;;;;36.68;20.48;;;;;;;0.89;72.47;99613.33;2083070;84;21113;-79
2022/12/15 11:46:24;;;;;;;34.35;20.77;;;;;;;0.89;72.11;99616.77;2076019;84;21499;-79
2022/12/15 11:49:48;;;;;;;33.33;19.32;;;;;;;0.83;71.96;99601.56;2088458;83;20989;-79
2022/12/15 11:53:06;;;;;;;33.45;19.02;;;;;;;0.76;71.76;99603.00;2080932;84;21017;-79
2022/12/15 11:56:17;;;;;;;40.88;21.55;;;;;;;0.87;71.69;99612.61;2111019;83;21759;-79
2022/12/15 11:59:53;;;;;;;44.00;23.38;;;;;;;1.00;71.88;99609.91;2109204;83;21033;-78
2022/12/15 12:03:08;;;;;;;41.40;21.62;;;;;;;1.21;71.48;99614.78;2088295;83;21081;-78
2022/12/15 12:06:27;;;;;;;39.18;21.82;;;;;;;1.27;71.40;99618.22;2123152;83;21097;-78
2022/12/15 12:09:32;;;;;;;36.90;22.07;;;;;;;1.33;70.92;99632.12;2118600;83;21112;-78
2022/12/15 12:12:54;;;;;;;36.45;20.43;;;;;;;1.40;70.89;99627.23;2120859;83;20972;-79
2022/12/15 12:16:21;;;;;;;47.78;23.05;;;;;;;1.33;69.93;99632.59;2123115;83;21513;-79
2022/12/15 12:19:57;;;;;;;34.98;17.80;;;;;;;1.14;70.00;99625.34;2103747;83;21064;-78
2022/12/15 12:23:19;;;;;;;39.95;20.62;;;;;;;0.99;69.80;99629.97;2118073;83;22202;-78
2022/12/15 12:26:26;;;;;;;39.20;20.75;;;;;;;0.88;69.67;99629.48;2123982;83;21128;-78
2022/12/15 12:29:52;;;;;;;32.35;18.85;;;;;;;0.83;69.71;99629.48;2125519;83;21140;-78
2022/12/15 12:33:05;;;;;;;33.58;19.02;;;;;;;0.73;69.32;99625.41;2124345;83;21494;-78
2022/12/15 12:36:14;;;;;;;31.77;17.80;;;;;;;0.60;69.35;99628.61;2118477;83;21089;-78
2022/12/15 12:39:20;;;;;;;33.23;18.65;;;;;;;0.53;69.36;99628.69;2117507;83;21073;-78
2022/12/15 12:42:35;;;;;;;33.60;18.50;;;;;;;0.48;69.26;99621.67;2120610;83;20991;-78
2022/12/15 12:45:57;;;;;;;30.40;18.57;;;;;;;0.41;69.39;99613.47;2117123;83;21101;-78
2022/12/15 12:49:09;;;;;;;32.30;18.95;;;;;;;0.46;69.31;99610.05;2114572;83;21030;-79
2022/12/15 12:52:24;;;;;;;39.85;20.95;;;;;;;0.47;69.14;99604.36;2085569;83;21070;-82
2022/12/15 12:55:39;;;;;;;34.18;19.30;;;;;;;0.52;69.20;99607.45;2125306;83;20990;-79
2022/12/15 12:58:41;;;;;;;38.40;20.32;;;;;;;0.53;69.00;99609.11;2125805;83;20994;-77
2022/12/15 13:01:43;;;;;;;40.65;21.50;;;;;;;0.42;68.70;99609.91;2125303;83;20971;-76
2022/12/15 13:05:06;;;;;;;40.05;20.27;;;;;;;0.39;68.96;99604.92;2126092;83;21005;-79
2022/12/15 13:08:11;;;;;;;36.28;21.55;;;;;;;0.39;68.88;99594.00;2118884;83;21043;-79
2022/12/15 13:11:52;;;;;;;40.75;21.35;;;;;;;0.45;68.98;99597.92;2120038;83;21692;-79
2022/12/15 13:14:57;;;;;;;41.65;20.75;;;;;;;0.48;68.86;99588.59;2125928;83;21022;-79
2022/12/15 13:18:21;;;;;;;41.88;20.27;;;;;;;0.58;68.84;99613.52;2123375;83;21612;-78
2022/12/15 13:21:52;;;;;;;37.60;19.98;;;;;;;0.68;71.08;99607.97;2120128;83;21011;-79
2022/12/15 13:24:56;;;;;;;36.38;19.42;;;;;;;0.83;68.82;99611.19;2126066;83;22207;-79
2022/12/15 13:28:02;;;;;;;35.75;19.45;;;;;;;0.69;68.48;99614.84;2121376;83;21065;-79
2022/12/15 13:31:23;;;;;;;40.73;20.68;;;;;;;0.66;68.63;99619.00;2092085;83;21074;-79
2022/12/15 13:34:32;;;;;;;33.80;19.62;;;;;;;0.61;68.38;99611.98;2117020;83;21042;-79
2022/12/15 13:37:58;;;;;;;36.90;20.27;;;;;;;0.57;68.41;99611.39;2124124;83;21470;-79
2022/12/15 13:40:59;;;;;;;33.30;18.23;;;;;;;0.53;68.39;99616.46;2126325;83;21011;-79
2022/12/15 13:44:04;;;;;;;32.98;19.02;;;;;;;0.46;68.26;99624.89;2121935;83;20979;-79
2022/12/15 13:47:25;;;;;;;36.38;22.05;;;;;;;0.39;68.15;99620.58;2121654;83;21109;-79
2022/12/15 13:50:35;;;;;;;35.85;19.32;;;;;;;0.31;68.06;99621.17;2124171;83;21498;-80
2022/12/15 13:53:48;;;;;;;32.40;19.33;;;;;;;0.24;68.10;99634.30;2119485;83;21164;-79
2022/12/15 13:57:02;;;;;;;38.30;20.97;;;;;;;0.18;68.18;99643.88;2123503;83;21053;-79
2022/12/15 14:00:09;;;;;;;40.50;21.33;;;;;;;0.18;68.09;99642.58;2117545;83;21035;-79
2022/12/15 14:03:12;;;;;;;38.58;21.35;;;;;;;0.15;68.03;99642.80;2118454;83;20988;-80
2022/12/15 14:06:15;;;;;;;33.28;20.65;;;;;;;0.05;67.89;99650.92;2090753;83;21156;-80
2022/12/15 14:09:33;;;;;;;37.55;20.62;;;;;;;-0.07;67.96;99656.56;2091097;83;21062;-80
2022/12/15 14:12:38;;;;;;;34.45;19.60;;;;;;;-0.24;67.88;99656.46;2094431;84;21075;-80
2022/12/15 14:15:48;;;;;;;45.78;25.17;;;;;;;-0.38;68.01;99672.25;2092423;84;21083;-80
2022/12/15 14:19:15;;;;;;;41.58;22.73;;;;;;;-0.53;68.04;99682.81;2077588;85;21131;-80
2022/12/15 14:22:27;;;;;;;36.10;20.62;;;;;;;-0.62;68.11;99668.27;2076896;84;21584;-80
2022/12/15 14:25:32;;;;;;;37.25;20.40;;;;;;;-0.77;68.11;99677.51;2098937;83;21120;-80
2022/12/15 14:28:35;;;;;;;40.12;21.42;;;;;;;-0.99;68.04;99683.34;2089435;85;21607;-80
2022/12/15 14:31:39;;;;;;;43.33;23.02;;;;;;;-1.20;68.12;99688.23;2102345;83;21121;-80
2022/12/15 14:34:43;;;;;;;39.70;21.85;;;;;;;-1.45;68.23;99687.72;2089854;84;21033;-80
2022/12/15 14:37:48;;;;;;;41.18;21.10;;;;;;;-1.59;68.38;99698.20;2091313;85;21049;-80
2022/12/15 14:40:53;;;;;;;41.48;20.60;;;;;;;-1.74;68.50;99703.11;2084615;85;21067;-81
2022/12/15 14:44:05;;;;;;;44.75;23.07;;;;;;;-1.96;68.48;99705.77;2090622;85;21028;-81
2022/12/15 14:47:19;;;;;;;47.27;23.90;;;;;;;-2.17;68.63;99709.70;2084926;84;21097;-79
2022/12/15 14:50:25;;;;;;;54.70;28.12;;;;;;;-2.33;68.89;99699.44;2111017;84;21101;-81
2022/12/15 14:53:34;;;;;;;48.87;26.68;;;;;;;-2.48;69.05;99714.19;2084092;85;21033;-77
2022/12/15 14:56:35;;;;;;;53.68;28.38;;;;;;;-2.58;69.21;99713.09;2102767;84;21103;-80
2022/12/15 14:59:44;;;;;;;49.30;27.42;;;;;;;-2.70;69.29;99706.89;2087381;83;21564;-79
2022/12/15 15:02:44;;;;;;;53.48;25.20;;;;;;;-2.78;69.35;99721.63;2107585;84;21051;-76
2022/12/15 15:06:02;;;;;;;43.40;23.18;;;;;;;-2.88;69.34;99723.55;2087090;84;21014;-78
2022/12/15 15:09:22;;;;;;;48.40;24.05;;;;;;;-2.99;69.39;99719.82;2070277;85;21069;-78
2022/12/15 15:12:40;;;;;;;51.90;26.17;;;;;;;-3.13;69.46;99728.05;2062741;86;21589;-79
2022/12/15 15:15:45;;;;;;;50.83;25.37;;;;;;;-3.28;69.63;99730.61;2078228;85;20999;-78
2022/12/15 15:18:53;;;;;;;44.27;23.62;;;;;;;-3.39;69.82;99727.80;2104653;83;21098;-78
2022/12/15 15:21:55;;;;;;;39.65;21.73;;;;;;;-3.51;69.79;99736.29;2133240;83;21105;-80
2022/12/15 15:24:56;;;;;;;39.58;21.25;;;;;;;-3.68;70.11;99745.84;2132119;82;21517;-81
2022/12/15 15:28:21;;;;;;;40.85;22.30;;;;;;;-3.76;70.43;99745.44;2133913;83;21607;-79
2022/12/15 15:31:36;;;;;;;38.15;21.02;;;;;;;-3.84;70.40;99742.42;2125284;83;21040;-77
2022/12/15 15:34:37;;;;;;;51.00;26.50;;;;;;;-4.06;70.25;99751.36;2126910;83;21477;-79
2022/12/15 15:37:39;;;;;;;49.38;25.02;;;;;;;-4.34;70.47;99752.47;2128289;83;21045;-78
2022/12/15 15:40:41;;;;;;;57.38;29.80;;;;;;;-4.53;70.96;99746.98;2131297;83;21061;-79
2022/12/15 15:43:42;;;;;;;64.67;33.53;;;;;;;-4.63;71.21;99748.36;2126925;83;21072;-80
2022/12/15 15:46:50;;;;;;;107.03;51.33;;;;;;;-4.76;71.32;99735.67;2129093;83;21002;-79
2022/12/15 15:49:54;;;;;;;108.92;46.85;;;;;;;-4.87;71.72;99738.83;2124114;83;21000;-79
2022/12/15 15:52:58;;;;;;;96.87;43.02;;;;;;;-4.95;71.85;99739.67;2126834;83;21065;-78
2022/12/15 15:56:05;;;;;;;95.50;51.37;;;;;;;-5.04;71.87;99728.05;2130284;82;21104;-77
2022/12/15 15:59:13;;;;;;;81.35;41.58;;;;;;;-5.25;71.81;99736.41;2124146;83;21030;-78
2022/12/15 16:02:14;;;;;;;97.30;46.77;;;;;;;-5.54;72.16;99731.38;2127227;83;21053;-77
2022/12/15 16:05:16;;;;;;;57.30;29.55;;;;;;;-5.71;72.62;99736.53;2127658;83;21004;-77
2022/12/15 16:08:22;;;;;;;49.45;25.70;;;;;;;-5.82;72.82;99733.16;2132868;82;20959;-77
2022/12/15 16:11:27;;;;;;;49.50;25.25;;;;;;;-6.06;72.74;99733.03;2129383;83;21006;-77
2022/12/15 16:14:29;;;;;;;56.37;27.22;;;;;;;-6.26;73.00;99732.20;2129995;83;21049;-77
2022/12/15 16:17:30;;;;;;;43.83;22.35;;;;;;;-6.50;73.08;99723.84;2132413;83;21093;-77
2022/12/15 16:20:37;;;;;;;54.83;25.72;;;;;;;-6.75;73.30;99724.54;2126972;83;21027;-77
2022/12/15 16:23:44;;;;;;;53.35;25.88;;;;;;;-6.90;73.66;99720.86;2129789;83;21624;-78
2022/12/15 16:26:49;;;;;;;67.87;33.55;;;;;;;-7.03;73.57;99723.14;2132021;83;21449;-77
2022/12/15 16:29:50;;;;;;;68.00;33.80;;;;;;;-7.11;73.64;99716.18;2126089;82;20981;-77
2022/12/15 16:32:53;;;;;;;95.67;41.40;;;;;;;-7.18;73.58;99731.05;2126576;82;21505;-78
2022/12/15 16:35:55;;;;;;;85.60;42.27;;;;;;;-7.26;73.82;99728.82;2127158;83;21015;-77
2022/12/15 16:38:56;;;;;;;97.62;52.58;;;;;;;-7.29;73.82;99734.53;2101820;83;21015;-77
2022/12/15 16:41:58;;;;;;;84.97;43.28;;;;;;;-7.34;73.71;99746.34;2129345;82;20959;-77
2022/12/15 16:45:03;;;;;;;86.07;40.53;;;;;;;-7.45;73.66;99746.77;2119806;83;21490;-77
2022/12/15 16:48:05;;;;;;;65.90;33.23;;;;;;;-7.46;74.09;99761.00;2127959;83;21085;-77
2022/12/15 16:51:10;;;;;;;69.87;31.17;;;;;;;-7.54;73.62;99754.88;2100613;83;20993;-77